createdAt,value
2022-10-30T00:01:43.880Z,15.3
2022-10-30T00:03:48.802Z,15.2
2022-10-30T00:05:50.810Z,15.1
2022-10-30T00:07:52.825Z,15
2022-10-30T00:09:54.843Z,14.8
2022-10-30T00:11:56.850Z,14.8
2022-10-30T00:13:58.891Z,14.7
2022-10-30T00:16:00.916Z,14.6
2022-10-30T00:18:05.983Z,14.3
2022-10-30T00:20:07.993Z,14.3
2022-10-30T00:22:10.194Z,14.2
2022-10-30T00:23:12.557Z,14.2
2022-10-30T00:25:14.549Z,14.2
2022-10-30T00:27:16.566Z,14
2022-10-30T00:29:18.580Z,14
2022-10-30T00:33:25.662Z,13.9
2022-10-30T00:35:27.676Z,13.8
2022-10-30T00:37:29.709Z,13.8
2022-10-30T00:39:31.733Z,13.7
2022-10-30T00:43:35.759Z,13.6
2022-10-30T00:45:40.846Z,13.5
2022-10-30T00:47:42.861Z,13.4
2022-10-30T00:49:44.886Z,13.3
2022-10-30T00:51:46.901Z,13.3
2022-10-30T00:53:48.939Z,13.2
2022-10-30T00:55:50.947Z,13.2
2022-10-30T00:57:52.984Z,13.2
2022-10-30T00:59:58.069Z,13.1
2022-10-30T01:02:00.264Z,13.1
2022-10-30T01:04:02.107Z,12.9
2022-10-30T01:06:04.126Z,12.9
2022-10-30T01:08:06.153Z,12.9
2022-10-30T01:10:08.173Z,12.9
2022-10-30T01:12:10.186Z,12.8
2022-10-30T01:14:15.252Z,12.7
2022-10-30T01:16:17.274Z,12.7
2022-10-30T01:18:19.324Z,12.7
2022-10-30T01:21:23.914Z,12.7
2022-10-30T01:23:25.918Z,12.6
2022-10-30T01:25:27.954Z,12.7
2022-10-30T01:29:35.052Z,12.6
2022-10-30T01:31:37.072Z,12.7
2022-10-30T01:43:52.284Z,12.5
2022-10-30T01:45:54.318Z,12.5
2022-10-30T01:47:56.631Z,12.5
2022-10-30T01:54:02.387Z,12.5
2022-10-30T01:56:07.470Z,12.5
2022-10-30T01:58:09.482Z,12.5
2022-10-30T02:00:11.497Z,12.5
2022-10-30T02:02:13.691Z,12.5
2022-10-30T02:04:15.521Z,12.5
2022-10-30T02:06:17.565Z,12.5
2022-10-30T02:08:19.598Z,12.5
2022-10-30T02:10:24.686Z,12.6
2022-10-30T02:12:26.695Z,12.5
2022-10-30T02:14:28.788Z,12.5
2022-10-30T02:16:51.551Z,12.4
2022-10-30T02:18:53.327Z,12.4
2022-10-30T02:20:55.319Z,12.4
2022-10-30T02:23:00.631Z,12.4
2022-10-30T02:25:02.474Z,12.5
2022-10-30T02:27:04.461Z,12.6
2022-10-30T02:29:06.482Z,12.5
2022-10-30T02:31:08.507Z,12.4
2022-10-30T02:33:10.565Z,12.4
2022-10-30T02:35:12.535Z,12.3
2022-10-30T02:37:17.617Z,12.3
2022-10-30T02:39:19.649Z,12.3
2022-10-30T02:41:21.678Z,12.3
2022-10-30T02:43:23.694Z,12.2
2022-10-30T02:45:25.729Z,12.2
2022-10-30T02:47:27.748Z,12.2
2022-10-30T02:49:29.788Z,12.1
2022-10-30T02:51:34.871Z,12
2022-10-30T02:53:36.875Z,12.1
2022-10-30T02:55:38.915Z,12.1
2022-10-30T02:57:40.950Z,12.2
2022-10-30T02:59:42.956Z,12.2
2022-10-30T03:01:45.043Z,12.2
2022-10-30T03:03:46.965Z,12.3
2022-10-30T03:05:52.057Z,12.2
2022-10-30T03:07:54.078Z,12.2
2022-10-30T03:09:56.077Z,12.2
2022-10-30T03:15:02.661Z,12.3
2022-10-30T03:17:04.670Z,12.4
2022-10-30T03:19:09.797Z,12.2
2022-10-30T03:21:11.824Z,12.2
2022-10-30T03:23:13.824Z,12.2
2022-10-30T03:25:15.868Z,12.3
2022-10-30T03:27:17.862Z,12.2
2022-10-30T03:29:19.893Z,12.3
2022-10-30T03:31:21.945Z,12.3
2022-10-30T03:33:26.994Z,12.3
2022-10-30T03:35:29.010Z,12.3
2022-10-30T03:37:31.047Z,12.3
2022-10-30T03:39:33.052Z,12.3
2022-10-30T03:41:35.084Z,12.3
2022-10-30T03:43:37.105Z,12.4
2022-10-30T03:45:39.109Z,12.4
2022-10-30T03:47:44.202Z,12.6
2022-10-30T03:49:46.206Z,12.6
2022-10-30T03:51:48.218Z,12.6
2022-10-30T03:53:50.250Z,12.5
2022-10-30T03:55:52.271Z,12.5
2022-10-30T03:57:54.316Z,12.4
2022-10-30T03:59:56.310Z,12.4
2022-10-30T04:02:01.596Z,12.3
2022-10-30T04:04:03.401Z,12.3
2022-10-30T04:06:05.405Z,12.2
2022-10-30T04:07:07.954Z,12.1
2022-10-30T04:09:09.980Z,12.1
2022-10-30T04:11:12.039Z,12.1
2022-10-30T04:13:14.004Z,12.1
2022-10-30T04:15:19.096Z,11.9
2022-10-30T04:17:21.111Z,11.8
2022-10-30T04:19:23.122Z,11.8
2022-10-30T04:23:27.170Z,11.8
2022-10-30T04:25:29.216Z,11.8
2022-10-30T04:27:31.300Z,11.8
2022-10-30T04:29:37.815Z,11.8
2022-10-30T04:31:39.810Z,11.8
2022-10-30T04:33:41.844Z,11.8
2022-10-30T04:35:43.871Z,11.6
2022-10-30T04:37:45.901Z,11.6
2022-10-30T04:39:47.895Z,11.6
2022-10-30T04:41:49.931Z,11.6
2022-10-30T04:43:55.011Z,11.5
2022-10-30T04:45:57.018Z,11.4
2022-10-30T04:47:59.331Z,11.4
2022-10-30T04:50:01.069Z,11.3
2022-10-30T04:52:03.074Z,11.3
2022-10-30T04:54:05.092Z,11.3
2022-10-30T04:56:07.113Z,11.3
2022-10-30T04:58:12.199Z,11.3
2022-10-30T05:00:14.206Z,11.4
2022-10-30T05:02:16.498Z,11.3
2022-10-30T05:03:18.759Z,11.4
2022-10-30T05:05:20.779Z,11.4
2022-10-30T05:07:22.802Z,11.4
2022-10-30T05:09:24.870Z,11.3
2022-10-30T05:11:29.907Z,11.3
2022-10-30T05:13:31.930Z,11.3
2022-10-30T05:15:33.944Z,11.2
2022-10-30T05:17:35.968Z,11.2
2022-10-30T05:19:37.989Z,11.1
2022-10-30T05:23:42.029Z,11.1
2022-10-30T05:29:51.150Z,11
2022-10-30T05:31:53.167Z,10.9
2022-10-30T05:33:55.198Z,10.9
2022-10-30T05:35:57.224Z,10.8
2022-10-30T05:37:59.221Z,10.8
2022-10-30T05:40:04.297Z,10.8
2022-10-30T05:42:09.818Z,10.8
2022-10-30T05:44:08.370Z,10.8
2022-10-30T05:48:12.398Z,10.7
2022-10-30T05:50:14.393Z,10.7
2022-10-30T05:52:16.418Z,10.6
2022-10-30T05:54:21.512Z,10.7
2022-10-30T05:56:23.533Z,10.7
2022-10-30T05:58:25.553Z,10.7
2022-10-30T06:00:52.078Z,10.6
2022-10-30T06:02:54.159Z,10.6
2022-10-30T06:04:56.113Z,10.5
2022-10-30T06:07:01.315Z,10.5
2022-10-30T06:09:03.229Z,10.5
2022-10-30T06:11:05.259Z,10.5
2022-10-30T06:13:07.295Z,10.4
2022-10-30T06:15:09.301Z,10.4
2022-10-30T06:17:11.429Z,10.4
2022-10-30T06:19:17.470Z,10.4
2022-10-30T06:21:18.422Z,10.4
2022-10-30T06:23:20.426Z,10.5
2022-10-30T06:25:22.444Z,10.5
2022-10-30T06:27:24.535Z,10.5
2022-10-30T06:29:26.482Z,10.5
2022-10-30T06:31:28.497Z,10.4
2022-10-30T06:33:30.501Z,10.5
2022-10-30T06:35:35.596Z,10.5
2022-10-30T06:37:37.593Z,10.5
2022-10-30T06:39:39.628Z,10.6
2022-10-30T06:41:41.657Z,10.6
2022-10-30T06:43:43.668Z,10.6
2022-10-30T06:45:45.696Z,10.6
2022-10-30T06:47:47.704Z,10.6
2022-10-30T06:49:52.792Z,10.6
2022-10-30T06:51:54.801Z,10.6
2022-10-30T06:53:56.826Z,10.6
2022-10-30T06:54:59.352Z,10.7
2022-10-30T06:57:01.386Z,10.7
2022-10-30T06:59:03.385Z,10.7
2022-10-30T07:01:05.389Z,10.8
2022-10-30T07:03:10.489Z,10.9
2022-10-30T07:05:12.511Z,10.9
2022-10-30T07:07:14.503Z,10.9
2022-10-30T07:09:16.525Z,11
2022-10-30T07:11:18.543Z,11
2022-10-30T07:13:20.575Z,11
2022-10-30T07:15:22.572Z,11.1
2022-10-30T07:17:27.657Z,11.2
2022-10-30T07:19:29.675Z,11.2
2022-10-30T07:21:31.768Z,11.3
2022-10-30T07:23:33.732Z,11.4
2022-10-30T07:25:35.742Z,11.4
2022-10-30T07:27:37.752Z,11.4
2022-10-30T07:29:39.779Z,11.5
2022-10-30T07:31:57.567Z,11.7
2022-10-30T07:33:46.886Z,11.7
2022-10-30T07:35:48.909Z,11.7
2022-10-30T07:37:50.906Z,11.7
2022-10-30T07:39:52.920Z,11.7
2022-10-30T07:41:54.974Z,11.9
2022-10-30T07:43:56.959Z,12
2022-10-30T07:46:02.064Z,12.1
2022-10-30T07:48:04.107Z,12.2
2022-10-30T07:50:06.096Z,12.2
2022-10-30T07:51:08.633Z,12.3
2022-10-30T07:55:12.657Z,12.3
2022-10-30T07:57:14.667Z,12.4
2022-10-30T07:59:19.743Z,12.5
2022-10-30T08:01:21.922Z,12.5
2022-10-30T08:03:23.772Z,12.5
2022-10-30T08:05:28.937Z,12.5
2022-10-30T08:07:27.824Z,12.6
2022-10-30T08:09:29.847Z,12.7
2022-10-30T08:11:31.863Z,12.7
2022-10-30T08:13:36.951Z,12.8
2022-10-30T08:15:38.976Z,12.8
2022-10-30T08:17:41.001Z,12.9
2022-10-30T08:19:43.008Z,13
2022-10-30T08:21:45.027Z,13
2022-10-30T08:23:47.044Z,13
2022-10-30T08:25:49.054Z,13.1
2022-10-30T08:29:56.171Z,13.3
2022-10-30T08:31:58.162Z,13.4
2022-10-30T08:34:00.198Z,13.5
2022-10-30T08:36:02.252Z,13.7
2022-10-30T08:38:04.231Z,13.9
2022-10-30T08:40:06.251Z,14
2022-10-30T08:42:11.320Z,14.2
2022-10-30T08:44:13.341Z,14.2
2022-10-30T08:46:15.370Z,14.3
2022-10-30T08:47:17.929Z,14.4
2022-10-30T08:49:19.909Z,14.4
2022-10-30T08:51:21.933Z,14.6
2022-10-30T08:53:23.956Z,14.6
2022-10-30T08:55:29.042Z,14.7
2022-10-30T08:57:31.055Z,14.8
2022-10-30T09:01:35.199Z,15.1
2022-10-30T09:03:37.112Z,15.2
2022-10-30T09:05:39.105Z,15.3
2022-10-30T09:07:41.108Z,15.4
2022-10-30T09:09:46.202Z,15.4
2022-10-30T09:11:48.220Z,15.5
2022-10-30T09:17:54.251Z,16
2022-10-30T09:19:56.265Z,16.1
2022-10-30T09:21:58.276Z,16.2
2022-10-30T09:24:03.319Z,16.4
2022-10-30T09:30:09.639Z,16.6
2022-10-30T09:32:11.342Z,16.7
2022-10-30T09:38:20.431Z,17.1
2022-10-30T09:40:22.502Z,17.1
2022-10-30T09:42:24.428Z,17.2
2022-10-30T09:46:49.440Z,17.4
2022-10-30T09:52:58.679Z,17.8
2022-10-30T09:55:00.491Z,17.9
2022-10-30T09:57:02.565Z,18
2022-10-30T10:03:08.462Z,18.2
2022-10-30T10:05:13.542Z,18.1
2022-10-30T10:07:15.539Z,18.3
2022-10-30T10:09:17.534Z,18.4
2022-10-30T10:11:19.528Z,18.6
2022-10-30T10:13:21.515Z,18.7
2022-10-30T10:15:23.501Z,18.8
2022-10-30T10:25:37.993Z,19.5
2022-10-30T10:31:43.931Z,20
2022-10-30T10:37:52.940Z,20.8
2022-10-30T10:38:55.467Z,21.1
2022-10-30T10:40:57.424Z,21.2
2022-10-30T10:42:59.141Z,21.7
2022-10-30T10:45:01.108Z,21.9
2022-10-30T10:47:07.533Z,21.1
2022-10-30T10:55:13.994Z,22.3
2022-10-30T11:01:23.158Z,23.2
2022-10-30T11:03:24.861Z,23
2022-10-30T11:05:26.821Z,24.1
2022-10-30T11:07:28.749Z,24.7
2022-10-30T11:09:30.701Z,25
2022-10-30T11:11:32.629Z,25.6
2022-10-30T11:13:34.551Z,25.1
2022-10-30T11:15:39.655Z,26
2022-10-30T11:17:41.530Z,25.9
2022-10-30T11:19:46.511Z,25.7
2022-10-30T11:21:45.397Z,25.1
2022-10-30T11:23:47.308Z,25.1
2022-10-30T11:27:51.165Z,26.7
2022-10-30T11:29:56.178Z,26.8
2022-10-30T11:31:58.093Z,26.4
2022-10-30T11:34:00.007Z,25.7
2022-10-30T11:37:04.433Z,23.8
2022-10-30T11:39:06.330Z,24.2
2022-10-30T11:41:08.251Z,24.1
2022-10-30T11:43:13.219Z,25
2022-10-30T11:45:15.154Z,24
2022-10-30T11:47:17.024Z,22.7
2022-10-30T11:49:18.934Z,22.4
2022-10-30T11:51:20.864Z,22.4
2022-10-30T11:53:22.726Z,22.8
2022-10-30T11:55:24.624Z,24.2
2022-10-30T11:57:29.614Z,26.3
2022-10-30T11:59:31.474Z,26.3
2022-10-30T12:01:33.479Z,26.2
2022-10-30T12:03:35.258Z,26.6
2022-10-30T12:05:37.160Z,27.4
2022-10-30T12:07:39.039Z,27.5
2022-10-30T12:13:47.779Z,25.3
2022-10-30T12:15:49.656Z,26
2022-10-30T12:19:53.413Z,25.4
2022-10-30T12:21:55.295Z,24.7
2022-10-30T12:23:57.176Z,24.5
2022-10-30T12:26:02.129Z,24.4
2022-10-30T12:28:04.016Z,24
2022-10-30T12:30:09.564Z,23.6
2022-10-30T12:31:08.378Z,23.7
2022-10-30T12:33:10.269Z,23.5
2022-10-30T12:37:14.047Z,23.4
2022-10-30T12:39:18.991Z,23.1
2022-10-30T12:41:20.847Z,22.8
2022-10-30T12:43:22.726Z,22.7
2022-10-30T12:45:24.617Z,22.8
2022-10-30T12:47:26.520Z,23.1
2022-10-30T12:49:28.407Z,23
2022-10-30T12:51:30.300Z,23.1
2022-10-30T12:53:35.266Z,23
2022-10-30T12:55:37.153Z,22.9
2022-10-30T12:57:39.061Z,23.3
2022-10-30T12:59:40.930Z,23.2
2022-10-30T13:01:42.932Z,22.7
2022-10-30T13:03:44.694Z,21.9
2022-10-30T13:05:46.641Z,21.5
2022-10-30T13:09:53.486Z,21
2022-10-30T13:11:55.385Z,20.9
2022-10-30T13:13:57.284Z,20.8
2022-10-30T13:15:59.184Z,20.7
2022-10-30T13:18:01.503Z,20.7
2022-10-30T13:20:03.005Z,20.6
2022-10-30T13:22:07.977Z,20.7
2022-10-30T13:24:09.897Z,20.6
2022-10-30T13:30:34.265Z,20.6
2022-10-30T13:36:43.093Z,20.7
2022-10-30T13:38:45.001Z,20.7
2022-10-30T13:40:46.904Z,21
2022-10-30T13:42:48.831Z,21.5
2022-10-30T13:44:50.760Z,21.9
2022-10-30T13:46:52.681Z,21.6
2022-10-30T13:48:57.681Z,21.6
2022-10-30T13:50:59.643Z,21.8
2022-10-30T13:53:01.923Z,23.2
2022-10-30T13:55:03.436Z,24.7
2022-10-30T13:57:05.360Z,26
2022-10-30T13:59:07.285Z,26.4
2022-10-30T14:01:09.475Z,26.2
2022-10-30T14:03:14.202Z,25.6
2022-10-30T14:05:16.122Z,25.4
2022-10-30T14:07:18.056Z,24.8
2022-10-30T14:09:19.961Z,24.2
2022-10-30T14:13:23.770Z,22.7
2022-10-30T14:15:25.676Z,22.2
2022-10-30T14:17:30.697Z,21.1
2022-10-30T14:19:32.597Z,20.8
2022-10-30T14:21:34.501Z,20.5
2022-10-30T14:22:37.051Z,20.2
2022-10-30T14:24:38.944Z,20.1
2022-10-30T14:28:42.763Z,19.8
2022-10-30T14:30:47.771Z,19.5
2022-10-30T14:32:49.693Z,19.4
2022-10-30T14:34:51.661Z,19.3
2022-10-30T14:36:53.563Z,19.2
2022-10-30T14:45:04.409Z,19
2022-10-30T14:47:06.350Z,19
2022-10-30T14:51:10.264Z,19.1
2022-10-30T14:53:12.218Z,19.3
2022-10-30T14:55:14.166Z,19.2
2022-10-30T14:57:16.176Z,19.1
2022-10-30T14:59:21.147Z,18.8
2022-10-30T15:01:23.275Z,18.8
2022-10-30T15:03:25.070Z,18.9
2022-10-30T15:05:27.090Z,19.3
2022-10-30T15:07:28.987Z,20
2022-10-30T15:09:30.938Z,20.2
2022-10-30T15:11:32.899Z,20
2022-10-30T15:13:37.957Z,20.1
2022-10-30T15:15:39.893Z,19.9
2022-10-30T15:17:41.850Z,19.6
2022-10-30T15:18:44.381Z,19.4
2022-10-30T15:20:46.346Z,19.3
2022-10-30T15:22:48.290Z,19.1
2022-10-30T15:24:50.257Z,18.9
2022-10-30T15:26:55.303Z,18.6
2022-10-30T15:28:57.265Z,18.6
2022-10-30T15:30:59.234Z,18.4
2022-10-30T15:33:01.588Z,18.3
2022-10-30T15:37:05.130Z,18
2022-10-30T15:39:07.107Z,17.9
2022-10-30T15:41:12.158Z,17.8
2022-10-30T15:43:14.109Z,17.7
2022-10-30T15:45:16.198Z,17.6
2022-10-30T15:47:18.057Z,17.5
2022-10-30T15:49:20.022Z,17.4
2022-10-30T15:51:22.009Z,17.4
2022-10-30T15:53:23.984Z,17.3
2022-10-30T15:55:29.078Z,17.3
2022-10-30T15:58:01.070Z,17.3
2022-10-30T15:59:33.012Z,17.2
2022-10-30T16:01:35.174Z,17.2
2022-10-30T16:03:36.990Z,17.2
2022-10-30T16:05:38.994Z,17.1
2022-10-30T16:07:40.982Z,17.1
2022-10-30T16:09:46.038Z,16.9
2022-10-30T16:11:49.536Z,16.9
2022-10-30T16:13:51.494Z,16.8
2022-10-30T16:14:54.009Z,16.8
2022-10-30T16:16:56.022Z,16.7
2022-10-30T16:18:58.011Z,16.7
2022-10-30T16:21:00.002Z,16.5
2022-10-30T16:23:05.085Z,16.4
2022-10-30T16:25:07.070Z,16.4
2022-10-30T16:27:09.066Z,16.4
2022-10-30T16:29:11.061Z,16.4
2022-10-30T16:31:13.060Z,16.3
2022-10-30T16:33:15.055Z,16.4
2022-10-30T16:35:17.090Z,16.3
2022-10-30T16:37:22.137Z,16.2
2022-10-30T16:39:24.131Z,16.2
2022-10-30T16:41:27.231Z,16.2
2022-10-30T16:43:28.130Z,16.3
2022-10-30T16:45:30.132Z,16.4
2022-10-30T16:47:32.141Z,16.4
2022-10-30T16:49:34.125Z,16.4
2022-10-30T16:51:39.208Z,16.4
2022-10-30T16:59:47.224Z,16.3
2022-10-30T17:01:49.346Z,16.3
2022-10-30T17:05:56.271Z,16.2
2022-10-30T17:12:23.651Z,16.6
2022-10-30T17:14:25.621Z,16.6
2022-10-30T17:16:27.619Z,16.7
2022-10-30T17:18:32.737Z,16.7
2022-10-30T17:20:35.613Z,16.7
2022-10-30T17:22:37.607Z,16.7
2022-10-30T17:24:39.609Z,16.8
2022-10-30T17:26:41.591Z,16.8
2022-10-30T17:36:54.883Z,16.9
2022-10-30T17:38:56.633Z,16.9
2022-10-30T17:47:07.685Z,16.9
2022-10-30T17:49:09.678Z,16.9
2022-10-30T17:51:11.647Z,16.7
2022-10-30T17:53:13.648Z,16.7
2022-10-30T17:55:15.646Z,16.7
2022-10-30T18:01:24.927Z,16.7
2022-10-30T18:03:26.680Z,16.7
2022-10-30T18:05:28.696Z,16.6
2022-10-30T18:06:31.206Z,16.5
2022-10-30T18:10:35.200Z,16.5
2022-10-30T18:12:37.189Z,16.4
2022-10-30T18:14:42.269Z,16.4
2022-10-30T18:16:44.248Z,16.3
2022-10-30T18:18:46.256Z,16.3
2022-10-30T18:20:48.238Z,16.3
2022-10-30T18:22:50.220Z,16.3
2022-10-30T18:24:52.227Z,16.2
2022-10-30T18:26:54.200Z,16.1
2022-10-30T18:28:59.278Z,16.2
2022-10-30T18:35:05.274Z,16.1
2022-10-30T18:37:07.267Z,16.2
2022-10-30T18:43:16.321Z,16.1
2022-10-30T18:45:18.327Z,16.1
2022-10-30T18:47:20.332Z,16.1
2022-10-30T18:51:24.322Z,16.1
2022-10-30T18:59:35.378Z,15.9
2022-10-30T19:01:37.711Z,15.9
2022-10-30T19:02:40.047Z,15.8
2022-10-30T19:04:41.913Z,15.8
2022-10-30T19:06:43.894Z,15.8
2022-10-30T19:08:45.890Z,15.7
2022-10-30T19:10:50.966Z,15.7
2022-10-30T19:13:11.465Z,15.7
2022-10-30T19:14:54.956Z,15.6
2022-10-30T19:16:56.945Z,15.6
2022-10-30T19:18:58.967Z,15.6
2022-10-30T19:21:05.796Z,15.6
2022-10-30T19:23:02.969Z,15.5
2022-10-30T19:25:08.044Z,15.5
2022-10-30T19:27:10.064Z,15.5
2022-10-30T19:29:12.045Z,15.4
2022-10-30T19:31:14.355Z,15.4
2022-10-30T19:33:16.043Z,15.3
2022-10-30T19:35:18.064Z,15.3
2022-10-30T19:41:27.170Z,15.2
2022-10-30T19:43:29.140Z,15.1
2022-10-30T19:45:31.133Z,15.1
2022-10-30T19:47:33.138Z,15.1
2022-10-30T19:49:35.159Z,15
2022-10-30T19:51:37.169Z,15.1
2022-10-30T19:55:44.250Z,15
2022-10-30T19:57:46.242Z,14.9
2022-10-30T19:58:48.818Z,14.9
2022-10-30T20:00:50.838Z,14.9
2022-10-30T20:02:52.832Z,14.8
2022-10-30T20:04:54.839Z,14.8
2022-10-30T20:07:02.440Z,14.8
2022-10-30T20:09:01.955Z,14.8
2022-10-30T20:11:04.069Z,14.8
2022-10-30T20:13:05.923Z,14.7
2022-10-30T20:15:07.938Z,14.7
2022-10-30T20:17:09.941Z,14.6
2022-10-30T20:19:11.940Z,14.6
2022-10-30T20:21:17.039Z,14.6
2022-10-30T20:23:19.051Z,14.5
2022-10-30T20:25:21.051Z,14.5
2022-10-30T20:27:23.066Z,14.5
2022-10-30T20:29:25.068Z,14.5
2022-10-30T20:31:27.217Z,14.5
2022-10-30T20:33:29.114Z,14.6
2022-10-30T20:35:34.185Z,14.6
2022-10-30T20:37:36.200Z,14.6
2022-10-30T20:39:38.183Z,14.7
2022-10-30T20:41:40.200Z,14.7
2022-10-30T20:43:42.219Z,14.6
2022-10-30T20:45:44.230Z,14.7
2022-10-30T20:47:46.222Z,14.7
2022-10-30T20:49:51.314Z,14.6
2022-10-30T20:51:53.298Z,14.7
2022-10-30T20:53:55.320Z,14.7
2022-10-30T20:56:18.253Z,14.6
2022-10-30T20:58:20.237Z,14.6
2022-10-30T21:00:22.256Z,14.5
2022-10-30T21:02:27.362Z,14.5
2022-10-30T21:04:29.323Z,14.5
2022-10-30T21:06:31.340Z,14.4
2022-10-30T21:10:35.379Z,14.4
2022-10-30T21:12:37.379Z,14.3
2022-10-30T21:16:44.482Z,14.3
2022-10-30T21:18:46.473Z,14.2
2022-10-30T21:20:48.480Z,14.1
2022-10-30T21:22:50.487Z,14.1
2022-10-30T21:24:52.536Z,14.1
2022-10-30T21:26:54.503Z,14.1
2022-10-30T21:28:56.526Z,14.1
2022-10-30T21:31:01.619Z,14.1
2022-10-30T21:33:04.200Z,14.1
2022-10-30T21:37:07.639Z,14
2022-10-30T21:39:09.663Z,14
2022-10-30T21:41:11.672Z,13.9
2022-10-30T21:43:13.695Z,13.8
2022-10-30T21:45:18.760Z,13.8
2022-10-30T21:49:22.779Z,13.7
2022-10-30T21:50:25.328Z,13.7
2022-10-30T21:52:27.332Z,13.7
2022-10-30T21:54:29.357Z,13.7
2022-10-30T21:56:31.356Z,13.7
2022-10-30T21:58:36.459Z,13.7
2022-10-30T22:00:38.638Z,13.6
2022-10-30T22:02:41.997Z,13.6
2022-10-30T22:04:43.974Z,13.6
2022-10-30T22:06:45.977Z,13.6
2022-10-30T22:08:48.005Z,13.6
2022-10-30T22:10:50.017Z,13.5
2022-10-30T22:12:55.098Z,13.5
2022-10-30T22:16:59.129Z,13.4
2022-10-30T22:19:01.138Z,13.4
2022-10-30T22:21:03.310Z,13.3
2022-10-30T22:23:05.179Z,13.3
2022-10-30T22:25:07.192Z,13.3
2022-10-30T22:27:12.268Z,13.3
2022-10-30T22:29:14.271Z,13.3
2022-10-30T22:31:16.298Z,13.3
2022-10-30T22:33:18.314Z,13.3
2022-10-30T22:35:20.309Z,13.3
2022-10-30T22:39:24.353Z,13.2
2022-10-30T22:41:32.854Z,13.2
2022-10-30T22:43:31.448Z,13.2
2022-10-30T22:45:33.472Z,13.2
2022-10-30T22:46:36.026Z,13.2
2022-10-30T22:48:38.029Z,13.1
2022-10-30T22:50:40.025Z,13.1
2022-10-30T22:52:42.059Z,13.1
2022-10-30T22:54:47.148Z,13
2022-10-30T22:56:49.173Z,13
2022-10-30T22:58:51.179Z,12.9
2022-10-30T23:00:53.179Z,12.9
2022-10-30T23:02:55.300Z,12.8
2022-10-30T23:04:57.236Z,12.7
2022-10-30T23:06:59.255Z,12.6
2022-10-30T23:09:04.347Z,12.5
2022-10-30T23:11:06.481Z,12.5
2022-10-30T23:13:08.451Z,12.4
2022-10-30T23:15:10.387Z,12.5
2022-10-30T23:17:12.421Z,12.5
2022-10-30T23:19:14.443Z,12.4
2022-10-30T23:21:16.478Z,12.4
2022-10-30T23:23:21.533Z,12.4
2022-10-30T23:25:23.561Z,12.4
2022-10-30T23:27:25.589Z,12.4
2022-10-30T23:29:27.580Z,12.4
2022-10-30T23:31:29.643Z,12.4
2022-10-30T23:33:31.627Z,12.4
2022-10-30T23:35:33.646Z,12.4
2022-10-30T23:37:38.723Z,12.4
2022-10-30T23:39:40.743Z,12.4
2022-10-30T23:41:42.771Z,12.4
2022-10-30T23:42:45.291Z,12.4
2022-10-30T23:44:47.327Z,12.4
2022-10-30T23:46:49.352Z,12.4
2022-10-30T23:48:51.418Z,12.3
2022-10-30T23:50:56.453Z,12.2
2022-10-30T23:52:58.460Z,12.2
2022-10-30T23:55:00.469Z,12.1
2022-10-30T23:57:02.491Z,12
2022-10-30T23:59:04.501Z,11.9
